createdAt,value
2022-09-12T00:01:27.949Z,59.89
2022-09-12T00:03:59.293Z,59.74
2022-09-12T00:06:30.807Z,58.15
2022-09-12T00:09:09.559Z,58.71
2022-09-12T00:11:41.402Z,61.28
2022-09-12T00:14:12.843Z,64.91
2022-09-12T00:16:41.407Z,65.65
2022-09-12T00:19:11.585Z,64.41
2022-09-12T00:21:40.610Z,62.88
2022-09-12T00:24:10.604Z,62.23
2022-09-12T00:26:38.464Z,61.40
2022-09-12T00:29:06.201Z,60.13
2022-09-12T00:31:34.357Z,59.90
2022-09-12T00:34:02.335Z,58.23
2022-09-12T00:36:31.178Z,58.46
2022-09-12T00:38:59.493Z,61.37
2022-09-12T00:41:34.051Z,64.75
2022-09-12T00:44:23.825Z,65.54
2022-09-12T00:47:03.481Z,64.15
2022-09-12T00:49:39.931Z,62.77
2022-09-12T00:52:13.616Z,61.99
2022-09-12T00:55:01.788Z,61.46
2022-09-12T00:58:17.390Z,60.89
2022-09-12T01:00:45.864Z,60.83
2022-09-12T01:03:17.930Z,60.73
2022-09-12T01:06:15.710Z,60.53
2022-09-12T01:08:47.068Z,60.28
2022-09-12T01:11:16.734Z,57.97
2022-09-12T01:13:46.366Z,58.69
2022-09-12T01:16:14.473Z,61.35
2022-09-12T01:19:13.033Z,64.89
2022-09-12T01:21:59.629Z,65.87
2022-09-12T01:24:55.012Z,64.46
2022-09-12T01:28:03.840Z,62.87
2022-09-12T01:30:45.730Z,61.85
2022-09-12T01:33:34.420Z,61.38
2022-09-12T01:36:24.651Z,60.93
2022-09-12T01:39:04.505Z,60.32
2022-09-12T01:42:01.741Z,59.39
2022-09-12T01:44:57.042Z,58.07
2022-09-12T01:47:41.474Z,60.89
2022-09-12T01:50:24.863Z,65.21
2022-09-12T01:52:59.861Z,65.94
2022-09-12T01:55:34.884Z,64.58
2022-09-12T01:58:15.526Z,62.89
2022-09-12T02:01:07.882Z,62.02
2022-09-12T02:03:51.993Z,61.23
2022-09-12T02:06:28.380Z,60.60
2022-09-12T02:09:11.203Z,59.90
2022-09-12T02:11:44.521Z,59.53
2022-09-12T02:14:25.690Z,57.75
2022-09-12T02:17:16.752Z,58.19
2022-09-12T02:19:53.209Z,62.17
2022-09-12T02:22:27.463Z,64.02
2022-09-12T02:25:02.237Z,62.91
2022-09-12T02:27:43.102Z,62.31
2022-09-12T02:30:14.521Z,61.45
2022-09-12T02:33:01.863Z,60.53
2022-09-12T02:35:46.271Z,59.70
2022-09-12T02:38:33.831Z,57.73
2022-09-12T02:41:02.148Z,58.49
2022-09-12T02:43:30.259Z,62.04
2022-09-12T02:45:58.255Z,64.06
2022-09-12T02:48:34.778Z,63.31
2022-09-12T02:51:03.857Z,62.45
2022-09-12T02:53:33.848Z,61.23
2022-09-12T02:56:02.763Z,60.25
2022-09-12T02:58:35.266Z,58.60
2022-09-12T03:01:25.815Z,58.86
2022-09-12T03:04:14.202Z,61.08
2022-09-12T03:06:58.816Z,64.99
2022-09-12T03:09:44.326Z,65.72
2022-09-12T03:13:01.557Z,64.54
2022-09-12T03:16:28.151Z,62.62
2022-09-12T03:19:06.309Z,61.48
2022-09-12T03:22:06.634Z,60.54
2022-09-12T03:24:51.983Z,60.10
2022-09-12T03:27:30.321Z,57.95
2022-09-12T03:30:00.342Z,58.83
2022-09-12T03:32:49.236Z,62.84
2022-09-12T03:35:23.184Z,64.61
2022-09-12T03:37:53.240Z,63.52
2022-09-12T03:40:21.334Z,62.30
2022-09-12T03:42:49.181Z,61.30
2022-09-12T03:45:17.035Z,60.77
2022-09-12T03:47:44.871Z,60.54
2022-09-12T03:50:12.572Z,60.13
2022-09-12T03:52:40.340Z,59.90
2022-09-12T03:55:08.330Z,60.02
2022-09-12T03:57:36.203Z,58.96
2022-09-12T04:00:08.217Z,58.50
2022-09-12T04:02:36.646Z,60.89
2022-09-12T04:05:05.261Z,64.56
2022-09-12T04:07:32.988Z,66.05
2022-09-12T04:10:00.730Z,65.30
2022-09-12T04:12:30.038Z,63.84
2022-09-12T04:14:57.762Z,62.93
2022-09-12T04:17:25.523Z,62.45
2022-09-12T04:19:53.249Z,62.09
2022-09-12T04:22:21.201Z,61.82
2022-09-12T04:24:48.984Z,61.46
2022-09-12T04:27:16.914Z,60.84
2022-09-12T04:29:44.671Z,60.32
2022-09-12T04:32:12.407Z,60.03
2022-09-12T04:34:40.148Z,59.67
2022-09-12T04:37:08.002Z,57.93
2022-09-12T04:39:35.736Z,58.32
2022-09-12T04:42:04.865Z,60.65
2022-09-12T04:44:32.599Z,63.91
2022-09-12T04:47:00.344Z,64.90
2022-09-12T04:49:28.113Z,63.32
2022-09-12T04:51:55.958Z,60.91
2022-09-12T04:54:23.784Z,57.49
2022-09-12T04:56:52.676Z,56.45
2022-09-12T04:59:22.042Z,57.13
2022-09-12T05:01:50.418Z,57.74
2022-09-12T05:04:18.628Z,58.52
2022-09-12T05:06:47.643Z,59.94
2022-09-12T05:09:26.801Z,61.84
2022-09-12T05:12:04.566Z,65.14
2022-09-12T05:14:35.258Z,65.68
2022-09-12T05:17:08.022Z,63.50
2022-09-12T05:19:42.192Z,61.70
2022-09-12T05:22:13.602Z,60.31
2022-09-12T05:24:47.282Z,58.21
2022-09-12T05:27:24.921Z,58.76
2022-09-12T05:29:53.124Z,60.96
2022-09-12T05:32:21.211Z,63.77
2022-09-12T05:34:49.952Z,64.66
2022-09-12T05:37:17.813Z,62.93
2022-09-12T05:39:46.654Z,61.27
2022-09-12T05:42:39.578Z,58.76
2022-09-12T05:45:35.224Z,58.43
2022-09-12T05:48:17.671Z,60.71
2022-09-12T05:51:11.783Z,64.04
2022-09-12T05:54:23.225Z,63.86
2022-09-12T05:57:25.183Z,61.21
2022-09-12T06:00:29.333Z,58.30
2022-09-12T06:03:05.508Z,58.99
2022-09-12T06:05:34.780Z,60.76
2022-09-12T06:08:20.288Z,62.19
2022-09-12T06:11:02.394Z,64.50
2022-09-12T06:13:42.292Z,62.96
2022-09-12T06:16:57.825Z,60.58
2022-09-12T06:20:03.209Z,56.59
2022-09-12T06:22:46.395Z,57.53
2022-09-12T06:25:24.743Z,59.09
2022-09-12T06:28:15.901Z,60.04
2022-09-12T06:31:37.927Z,61.37
2022-09-12T06:34:32.705Z,61.69
2022-09-12T06:37:01.483Z,64.40
2022-09-12T06:39:30.383Z,62.76
2022-09-12T06:41:58.383Z,58.41
2022-09-12T06:44:26.692Z,56.72
2022-09-12T06:46:54.465Z,56.69
2022-09-12T06:49:22.295Z,58.72
2022-09-12T06:51:50.070Z,59.08
2022-09-12T06:54:17.900Z,59.86
2022-09-12T06:56:46.001Z,60.30
2022-09-12T06:59:14.391Z,60.28
2022-09-12T07:01:42.378Z,60.54
2022-09-12T07:04:11.664Z,60.62
2022-09-12T07:06:42.985Z,60.80
2022-09-12T07:09:16.576Z,60.33
2022-09-12T07:11:46.231Z,60.51
2022-09-12T07:14:15.578Z,60.63
2022-09-12T07:16:43.835Z,60.03
2022-09-12T07:19:12.262Z,60.18
2022-09-12T07:21:41.675Z,61.03
2022-09-12T07:24:11.083Z,60.33
2022-09-12T07:26:42.410Z,59.73
2022-09-12T07:29:36.453Z,59.27
2022-09-12T07:32:32.127Z,58.69
2022-09-12T07:35:25.096Z,59.53
2022-09-12T07:38:13.012Z,57.83
2022-09-12T07:40:52.973Z,57.64
2022-09-12T07:43:33.462Z,57.39
2022-09-12T07:46:03.993Z,57.49
2022-09-12T07:48:42.893Z,57.10
2022-09-12T07:57:45.572Z,57.32
2022-09-12T08:07:26.156Z,54.43
2022-09-12T08:10:00.073Z,55.00
2022-09-12T08:12:32.417Z,54.72
2022-09-12T08:15:09.230Z,52.36
2022-09-12T08:18:11.523Z,52.85
2022-09-12T08:21:04.885Z,52.84
2022-09-12T08:23:55.751Z,54.14
2022-09-12T08:26:36.593Z,52.58
2022-09-12T08:29:19.870Z,52.78
2022-09-12T08:31:51.922Z,52.74
2022-09-12T08:34:38.487Z,52.20
2022-09-12T08:37:12.213Z,51.23
2022-09-12T08:39:48.126Z,51.07
2022-09-12T08:43:10.702Z,51.12
2022-09-12T08:45:58.567Z,51.56
2022-09-12T08:48:29.783Z,51.21
2022-09-12T08:50:58.881Z,51.49
2022-09-12T08:53:35.080Z,52.14
2022-09-12T08:56:12.139Z,52.04
2022-09-12T08:58:49.446Z,52.29
2022-09-12T09:01:50.401Z,52.67
2022-09-12T09:04:56.796Z,53.39
2022-09-12T09:07:58.363Z,53.47
2022-09-12T09:10:53.773Z,53.46
2022-09-12T09:14:08.766Z,53.45
2022-09-12T09:16:44.821Z,53.54
2022-09-12T09:19:25.387Z,53.58
2022-09-12T09:22:14.796Z,53.48
2022-09-12T09:24:58.352Z,53.57
2022-09-12T09:27:47.136Z,52.86
2022-09-12T09:30:19.698Z,53.06
2022-09-12T09:32:54.276Z,52.84
2022-09-12T09:35:44.650Z,52.23
2022-09-12T09:38:32.261Z,51.89
2022-09-12T09:42:08.040Z,52.44
2022-09-12T09:44:37.100Z,52.78
2022-09-12T09:47:05.493Z,52.11
2022-09-12T09:49:36.338Z,50.73
2022-09-12T09:52:08.519Z,49.97
2022-09-12T09:54:44.577Z,50.25
2022-09-12T09:57:34.371Z,51.29
2022-09-12T10:00:36.802Z,51.42
2022-09-12T10:03:14.089Z,49.97
2022-09-12T10:05:56.698Z,49.56
2022-09-12T10:08:36.877Z,49.98
2022-09-12T10:11:55.207Z,49.63
2022-09-12T10:14:38.693Z,50.35
2022-09-12T10:17:39.633Z,49.18
2022-09-12T10:20:45.337Z,49.82
2022-09-12T10:23:38.591Z,49.73
2022-09-12T10:26:17.707Z,48.61
2022-09-12T10:28:56.672Z,47.66
2022-09-12T10:31:51.469Z,47.46
2022-09-12T10:34:26.812Z,48.09
2022-09-12T10:37:02.982Z,46.95
2022-09-12T10:39:31.530Z,46.65
2022-09-12T10:42:06.647Z,47.14
2022-09-12T10:44:35.683Z,47.25
2022-09-12T10:47:30.347Z,47.02
2022-09-12T10:50:27.197Z,46.77
2022-09-12T10:53:14.217Z,46.85
2022-09-12T10:56:10.376Z,47.30
2022-09-12T10:59:07.259Z,46.61
2022-09-12T11:01:45.216Z,46.12
2022-09-12T11:04:56.785Z,45.08
2022-09-12T11:07:49.117Z,45.83
2022-09-12T11:10:37.974Z,46.60
2022-09-12T11:13:27.278Z,47.03
2022-09-12T11:16:23.334Z,47.53
2022-09-12T11:19:04.030Z,47.62
2022-09-12T11:22:08.978Z,46.80
2022-09-12T11:25:10.844Z,47.21
2022-09-12T11:28:07.924Z,47.14
2022-09-12T11:31:59.039Z,47.39
2022-09-12T11:34:58.435Z,47.83
2022-09-12T11:37:41.182Z,47.55
2022-09-12T11:40:36.134Z,47.51
2022-09-12T11:43:35.647Z,47.93
2022-09-12T11:46:38.737Z,48.01
2022-09-12T11:49:18.158Z,47.78
2022-09-12T11:52:07.478Z,47.61
2022-09-12T11:54:53.755Z,48.00
2022-09-12T11:57:25.352Z,47.56
2022-09-12T12:00:09.097Z,47.60
2022-09-12T12:03:10.272Z,48.02
2022-09-12T12:05:59.617Z,48.36
2022-09-12T12:08:33.204Z,47.99
2022-09-12T12:11:06.617Z,48.30
2022-09-12T12:13:45.982Z,47.86
2022-09-12T12:16:26.775Z,48.23
2022-09-12T12:18:59.880Z,48.08
2022-09-12T12:21:43.113Z,48.37
2022-09-12T12:24:22.964Z,48.36
2022-09-12T12:26:52.521Z,48.02
2022-09-12T12:29:20.319Z,48.48
2022-09-12T12:32:02.081Z,49.39
2022-09-12T12:34:34.057Z,49.46
2022-09-12T12:37:29.932Z,49.24
2022-09-12T12:40:20.191Z,48.60
2022-09-12T12:42:48.046Z,48.71
2022-09-12T12:45:18.688Z,48.49
2022-09-12T12:47:52.834Z,48.76
2022-09-12T12:50:20.575Z,48.62
2022-09-12T12:53:04.525Z,48.95
2022-09-12T12:55:50.232Z,49.00
2022-09-12T12:58:37.736Z,49.09
2022-09-12T13:01:05.892Z,49.11
2022-09-12T13:03:34.878Z,49.19
2022-09-12T13:06:08.213Z,49.14
2022-09-12T13:09:00.501Z,49.59
2022-09-12T13:11:40.535Z,49.59
2022-09-12T13:14:48.286Z,49.62
2022-09-12T13:17:45.762Z,49.63
2022-09-12T13:20:30.487Z,49.62
2022-09-12T13:23:26.544Z,49.79
2022-09-12T13:38:15.758Z,48.86
2022-09-12T13:54:20.240Z,48.82
2022-09-12T13:58:25.452Z,49.22
2022-09-12T14:01:20.080Z,49.52
2022-09-12T14:08:31.718Z,49.51
2022-09-12T14:15:40.007Z,48.69
2022-09-12T14:18:53.315Z,48.42
2022-09-12T14:25:57.396Z,48.79
2022-09-12T14:28:36.422Z,48.51
2022-09-12T14:31:28.029Z,48.96
2022-09-12T14:34:10.102Z,49.19
2022-09-12T14:36:50.073Z,49.48
2022-09-12T14:39:44.223Z,49.77
2022-09-12T14:42:21.059Z,49.91
2022-09-12T14:45:01.828Z,50.14
2022-09-12T14:47:44.706Z,50.11
2022-09-12T14:50:29.838Z,50.11
2022-09-12T14:53:28.039Z,50.16
2022-09-12T14:56:14.256Z,50.50
2022-09-12T14:58:45.668Z,50.61
2022-09-12T15:01:13.673Z,50.93
2022-09-12T15:03:49.271Z,51.31
2022-09-12T15:06:38.953Z,51.41
2022-09-12T15:09:14.285Z,51.55
2022-09-12T15:11:45.069Z,51.59
2022-09-12T15:14:14.891Z,51.76
2022-09-12T15:16:43.137Z,51.76
2022-09-12T15:19:10.860Z,51.81
2022-09-12T15:21:38.681Z,51.84
2022-09-12T15:24:06.609Z,52.06
2022-09-12T15:26:35.077Z,52.46
2022-09-12T15:29:03.434Z,52.72
2022-09-12T15:31:33.110Z,53.32
2022-09-12T15:34:03.115Z,54.37
2022-09-12T15:36:31.659Z,54.25
2022-09-12T15:38:59.632Z,54.52
2022-09-12T15:41:37.163Z,54.96
2022-09-12T15:44:14.867Z,55.38
2022-09-12T15:46:43.157Z,55.42
2022-09-12T15:49:11.005Z,56.09
2022-09-12T15:51:38.956Z,56.55
2022-09-12T15:54:06.736Z,56.63
2022-09-12T15:56:34.617Z,56.67
2022-09-12T15:59:02.933Z,56.68
2022-09-12T16:01:30.923Z,57.01
2022-09-12T16:03:58.863Z,56.95
2022-09-12T16:06:33.585Z,57.27
2022-09-12T16:09:04.334Z,57.29
2022-09-12T16:11:33.186Z,57.56
2022-09-12T16:14:01.049Z,58.34
2022-09-12T16:16:30.070Z,59.14
2022-09-12T16:18:59.034Z,59.04
2022-09-12T16:21:27.822Z,59.76
2022-09-12T16:23:56.069Z,59.92
2022-09-12T16:26:29.689Z,60.17
2022-09-12T16:29:03.914Z,60.67
2022-09-12T16:31:32.189Z,60.60
2022-09-12T16:34:05.112Z,64.15
2022-09-12T16:36:34.860Z,66.84
2022-09-12T16:39:03.540Z,64.25
2022-09-12T16:41:31.413Z,59.52
2022-09-12T16:43:59.408Z,56.24
2022-09-12T16:46:28.992Z,56.12
2022-09-12T16:48:58.983Z,56.87
2022-09-12T16:51:35.935Z,57.67
2022-09-12T16:54:25.204Z,58.45
2022-09-12T16:56:55.832Z,58.88
2022-09-12T16:59:25.593Z,59.96
2022-09-12T17:01:53.595Z,63.54
2022-09-12T17:04:27.688Z,66.07
2022-09-12T17:06:57.568Z,64.00
2022-09-12T17:09:33.373Z,58.31
2022-09-12T17:12:02.696Z,55.22
2022-09-12T17:14:31.087Z,56.08
2022-09-12T17:17:10.845Z,57.40
2022-09-12T17:19:46.810Z,58.26
2022-09-12T17:22:17.853Z,59.97
2022-09-12T17:24:50.221Z,63.10
2022-09-12T17:27:19.004Z,65.53
2022-09-12T17:29:51.418Z,62.69
2022-09-12T17:32:19.912Z,58.56
2022-09-12T17:34:52.774Z,56.84
2022-09-12T17:37:23.434Z,57.44
2022-09-12T17:39:55.363Z,58.89
2022-09-12T17:42:24.932Z,61.46
2022-09-12T17:44:54.629Z,63.47
2022-09-12T17:47:23.464Z,63.21
2022-09-12T17:49:56.357Z,60.19
2022-09-12T17:52:37.456Z,57.28
2022-09-12T17:55:07.363Z,57.94
2022-09-12T17:57:36.162Z,59.57
2022-09-12T18:00:05.948Z,62.81
2022-09-12T18:02:35.617Z,65.34
2022-09-12T18:05:07.203Z,64.27
2022-09-12T18:07:38.961Z,62.74
2022-09-12T18:10:11.468Z,59.70
2022-09-12T18:12:39.880Z,57.74
2022-09-12T18:15:09.078Z,58.45
2022-09-12T18:17:37.810Z,61.22
2022-09-12T18:20:11.146Z,63.05
2022-09-12T18:22:39.521Z,63.75
2022-09-12T18:25:14.154Z,61.74
2022-09-12T18:27:42.734Z,58.46
2022-09-12T18:30:21.432Z,57.29
2022-09-12T18:32:59.480Z,58.64
2022-09-12T18:35:33.664Z,63.37
2022-09-12T18:38:05.380Z,65.15
2022-09-12T18:40:39.088Z,63.53
2022-09-12T18:43:07.294Z,61.98
2022-09-12T18:45:36.455Z,58.84
2022-09-12T18:48:10.870Z,57.20
2022-09-12T18:50:41.668Z,58.37
2022-09-12T18:53:10.208Z,62.16
2022-09-12T18:55:38.578Z,64.94
2022-09-12T18:58:09.243Z,64.80
2022-09-12T19:00:42.014Z,63.20
2022-09-12T19:03:13.963Z,62.03
2022-09-12T19:05:46.918Z,61.48
2022-09-12T19:08:15.295Z,58.46
2022-09-12T19:10:44.757Z,57.44
2022-09-12T19:13:13.044Z,59.58
2022-09-12T19:15:47.857Z,63.44
2022-09-12T19:18:16.284Z,64.92
2022-09-12T19:20:44.844Z,63.91
2022-09-12T19:26:11.516Z,62.25
2022-09-12T19:28:40.248Z,61.50
2022-09-12T19:31:19.243Z,61.54
2022-09-12T19:33:48.738Z,60.89
2022-09-12T19:39:19.986Z,59.89
2022-09-12T19:41:48.567Z,57.41
2022-09-12T19:44:19.471Z,58.01
2022-09-12T19:46:55.622Z,61.96
2022-09-12T19:49:37.353Z,64.37
2022-09-12T19:52:05.445Z,63.73
2022-09-12T19:54:33.524Z,62.40
2022-09-12T19:57:01.751Z,62.50
2022-09-12T19:59:34.186Z,61.71
2022-09-12T20:02:03.988Z,58.20
2022-09-12T20:04:32.677Z,56.52
2022-09-12T20:07:00.472Z,58.55
2022-09-12T20:09:29.400Z,62.67
2022-09-12T20:11:59.054Z,64.38
2022-09-12T20:14:28.733Z,63.20
2022-09-12T20:16:56.512Z,62.35
2022-09-12T20:19:24.360Z,61.38
2022-09-12T20:21:54.593Z,60.74
2022-09-12T20:24:22.776Z,60.28
2022-09-12T20:27:00.238Z,59.79
2022-09-12T20:29:27.942Z,57.16
2022-09-12T20:31:55.687Z,57.23
2022-09-12T20:34:27.514Z,59.28
2022-09-12T20:36:58.375Z,64.04
2022-09-12T20:39:26.223Z,65.59
2022-09-12T20:41:54.154Z,63.68
2022-09-12T20:44:27.743Z,61.97
2022-09-12T20:47:55.199Z,60.45
2022-09-12T20:50:40.951Z,56.32
2022-09-12T20:53:20.620Z,56.91
2022-09-12T20:55:53.549Z,58.89
2022-09-12T20:58:25.668Z,62.92
2022-09-12T21:00:55.073Z,65.16
2022-09-12T21:03:23.265Z,64.75
2022-09-12T21:05:51.895Z,63.37
2022-09-12T21:08:20.257Z,62.48
2022-09-12T21:10:55.747Z,60.91
2022-09-12T21:13:26.145Z,60.03
2022-09-12T21:16:18.692Z,59.73
2022-09-12T21:19:01.515Z,57.75
2022-09-12T21:21:33.633Z,59.04
2022-09-12T21:24:04.838Z,63.54
2022-09-12T21:26:34.304Z,65.35
2022-09-12T21:29:02.410Z,64.30
2022-09-12T21:31:30.690Z,63.01
2022-09-12T21:33:58.391Z,62.19
2022-09-12T21:36:26.464Z,61.73
2022-09-12T21:38:59.234Z,61.57
2022-09-12T21:41:27.069Z,61.41
2022-09-12T21:43:54.852Z,60.82
2022-09-12T21:46:22.726Z,60.94
2022-09-12T21:48:50.492Z,61.08
2022-09-12T21:51:18.312Z,61.03
2022-09-12T21:53:46.151Z,60.62
2022-09-12T21:56:13.953Z,60.14
2022-09-12T21:58:41.750Z,57.91
2022-09-12T22:01:12.125Z,57.46
2022-09-12T22:03:39.969Z,59.22
2022-09-12T22:06:07.914Z,63.17
2022-09-12T22:08:37.731Z,64.54
2022-09-12T22:11:11.907Z,63.26
2022-09-12T22:13:44.000Z,62.03
2022-09-12T22:16:12.549Z,61.07
2022-09-12T22:18:40.686Z,60.42
2022-09-12T22:21:13.658Z,60.13
2022-09-12T22:24:00.561Z,59.34
2022-09-12T22:26:29.376Z,58.54
2022-09-12T22:28:57.255Z,62.77
2022-09-12T22:31:25.393Z,64.69
2022-09-12T22:33:59.066Z,64.17
2022-09-12T22:36:30.991Z,63.65
2022-09-12T22:38:59.921Z,63.04
2022-09-12T22:41:28.658Z,62.83
2022-09-12T22:43:57.036Z,62.54
2022-09-12T22:46:25.086Z,62.35
2022-09-12T22:48:52.913Z,62.41
2022-09-12T22:51:20.690Z,62.43
2022-09-12T22:53:48.519Z,61.98
2022-09-12T22:56:16.309Z,61.93
2022-09-12T22:58:44.286Z,61.75
2022-09-12T23:01:12.156Z,61.70
2022-09-12T23:03:40.277Z,61.69
2022-09-12T23:06:10.097Z,61.53
2022-09-12T23:08:42.469Z,61.73
2022-09-12T23:11:15.025Z,61.83
2022-09-12T23:13:46.652Z,61.66
2022-09-12T23:16:21.574Z,61.57
2022-09-12T23:18:50.161Z,61.25
2022-09-12T23:21:21.122Z,61.39
2022-09-12T23:23:50.526Z,60.87
2022-09-12T23:26:24.500Z,60.57
2022-09-12T23:29:05.756Z,60.22
2022-09-12T23:31:34.559Z,60.05
2022-09-12T23:34:06.148Z,59.90
2022-09-12T23:36:34.724Z,59.81
2022-09-12T23:39:02.895Z,59.62
2022-09-12T23:41:31.124Z,59.59
2022-09-12T23:43:59.010Z,57.88
2022-09-12T23:46:27.076Z,57.53
2022-09-12T23:48:54.781Z,61.53
2022-09-12T23:51:22.636Z,64.22
2022-09-12T23:53:50.606Z,63.46
2022-09-12T23:56:18.302Z,62.51
2022-09-12T23:58:45.990Z,61.67
